Time;durP1;ratioP1;P1;durP2;ratioP2;P2;SDS_P1;SDS_P2;PMS_P1;PMS_P2;Temp;Humidity;BMP_temperature;BMP_pressure;BME280_temperature;BME280_humidity;BME280_pressure;Samples;Min_cycle;Max_cycle;Signal;HPM_P1;HPM_P2
2023/09/29 00:00:56;;;;;;;46.17;30.15;;;15.70;99.90;;;;;;5096895;28;20035;-69
2023/09/29 00:03:21;;;;;;;47.85;30.45;;;15.70;99.90;;;;;;5096541;28;20378;-69
2023/09/29 00:05:49;;;;;;;42.22;31.13;;;15.70;99.90;;;;;;5097095;28;20488;-69
2023/09/29 00:08:17;;;;;;;43.53;30.02;;;15.70;99.90;;;;;;5097082;28;20032;-69
2023/09/29 00:10:43;;;;;;;43.58;28.60;;;15.70;99.90;;;;;;5096529;28;20032;-69
2023/09/29 00:13:08;;;;;;;45.75;30.95;;;15.70;99.90;;;;;;5096728;28;20055;-69
2023/09/29 00:15:34;;;;;;;43.45;31.10;;;15.70;99.90;;;;;;5095838;28;20075;-69
2023/09/29 00:18:00;;;;;;;43.88;29.50;;;15.70;99.90;;;;;;5096955;28;20035;-69
2023/09/29 00:20:26;;;;;;;48.45;31.33;;;15.70;99.90;;;;;;5096262;28;20074;-69
2023/09/29 00:22:53;;;;;;;38.35;27.70;;;15.70;99.90;;;;;;5096426;28;20458;-69
2023/09/29 00:25:19;;;;;;;35.72;28.13;;;15.70;99.90;;;;;;5096566;28;20513;-69
2023/09/29 00:27:45;;;;;;;39.13;29.33;;;15.70;99.90;;;;;;5096530;28;20089;-69
2023/09/29 00:30:12;;;;;;;39.08;28.13;;;15.70;99.90;;;;;;5096723;28;20457;-69
2023/09/29 00:32:45;;;;;;;39.03;29.50;;;15.80;99.90;;;;;;5095623;28;20379;-69
2023/09/29 00:35:11;;;;;;;35.30;25.98;;;15.80;99.90;;;;;;5095411;28;20028;-69
2023/09/29 00:37:37;;;;;;;34.75;24.88;;;15.80;99.90;;;;;;5096581;28;20472;-69
2023/09/29 00:40:11;;;;;;;37.55;28.08;;;15.80;99.90;;;;;;5095663;28;20028;-69
2023/09/29 00:42:36;;;;;;;43.75;28.67;;;15.80;99.90;;;;;;5096415;28;20024;-69
2023/09/29 00:45:03;;;;;;;35.90;27.20;;;15.90;99.90;;;;;;5095931;28;20039;-69
2023/09/29 00:47:29;;;;;;;36.33;26.83;;;15.90;99.90;;;;;;5096042;28;20477;-69
2023/09/29 00:49:54;;;;;;;36.30;24.70;;;15.90;99.90;;;;;;5096405;28;20035;-69
2023/09/29 00:52:23;;;;;;;31.85;22.63;;;15.90;99.90;;;;;;5095801;28;20058;-69
2023/09/29 00:54:51;;;;;;;33.40;23.83;;;15.90;99.90;;;;;;5096057;28;20025;-69
2023/09/29 00:57:17;;;;;;;32.17;24.08;;;15.80;99.90;;;;;;5096191;28;20478;-69
2023/09/29 00:59:43;;;;;;;34.10;25.02;;;15.80;99.90;;;;;;5095928;28;20020;-69
2023/09/29 01:02:09;;;;;;;38.17;25.08;;;15.80;99.90;;;;;;5095760;28;20024;-69
2023/09/29 01:04:35;;;;;;;32.17;23.80;;;15.80;99.90;;;;;;5095552;28;20020;-69
2023/09/29 01:07:02;;;;;;;34.70;25.13;;;15.80;99.90;;;;;;5095775;28;20032;-69
2023/09/29 01:09:27;;;;;;;30.45;23.25;;;15.70;99.90;;;;;;5095930;28;20378;-69
2023/09/29 01:11:53;;;;;;;35.05;24.75;;;15.70;99.90;;;;;;5094971;28;20122;-69
2023/09/29 01:14:19;;;;;;;34.08;26.42;;;15.70;99.90;;;;;;5095755;28;20036;-69
2023/09/29 01:16:44;;;;;;;33.47;23.40;;;15.70;99.90;;;;;;5095521;28;20020;-69
2023/09/29 01:19:12;;;;;;;34.97;25.13;;;15.70;99.90;;;;;;5094642;28;20027;-69
2023/09/29 01:21:39;;;;;;;33.35;24.48;;;15.60;99.90;;;;;;5095752;28;20020;-69
2023/09/29 01:24:07;;;;;;;32.75;24.75;;;15.50;99.90;;;;;;5095381;28;20032;-69
2023/09/29 01:26:32;;;;;;;34.67;24.17;;;15.50;99.90;;;;;;5095614;28;20373;-69
2023/09/29 01:28:58;;;;;;;32.80;25.48;;;15.40;99.90;;;;;;5095284;28;20115;-69
2023/09/29 01:31:24;;;;;;;28.85;22.15;;;15.40;99.90;;;;;;5095515;28;20036;-69
2023/09/29 01:33:49;;;;;;;29.27;21.10;;;15.40;99.90;;;;;;5094391;28;20066;-69
2023/09/29 01:36:15;;;;;;;35.63;25.63;;;15.30;99.90;;;;;;5095480;28;20024;-69
2023/09/29 01:38:40;;;;;;;37.65;27.50;;;15.30;99.90;;;;;;5095055;28;20077;-69
2023/09/29 01:41:06;;;;;;;32.38;23.75;;;15.30;99.90;;;;;;5094416;28;20416;-69
2023/09/29 01:43:32;;;;;;;38.15;26.73;;;15.30;99.90;;;;;;5094676;28;20067;-69
2023/09/29 01:45:59;;;;;;;29.27;23.48;;;15.40;99.90;;;;;;5094896;28;20445;-69
2023/09/29 01:48:25;;;;;;;36.80;24.42;;;15.40;99.90;;;;;;5095198;28;20024;-69
2023/09/29 01:50:51;;;;;;;34.83;22.63;;;15.40;99.90;;;;;;5094908;28;20518;-69
2023/09/29 01:53:16;;;;;;;29.10;22.17;;;15.40;99.90;;;;;;5095079;28;20112;-69
2023/09/29 01:55:42;;;;;;;37.83;26.42;;;15.40;99.90;;;;;;5094041;28;20094;-69
2023/09/29 01:58:08;;;;;;;33.92;24.52;;;15.50;99.90;;;;;;5094342;28;20379;-69
2023/09/29 02:00:35;;;;;;;33.30;23.70;;;15.50;99.90;;;;;;5094643;28;20027;-68
2023/09/29 02:03:02;;;;;;;34.58;26.40;;;15.50;99.90;;;;;;5094615;28;20078;-68
2023/09/29 02:05:28;;;;;;;29.13;22.63;;;15.60;99.90;;;;;;5094969;28;20031;-69
2023/09/29 02:07:54;;;;;;;36.97;26.45;;;15.60;99.90;;;;;;5094290;28;20389;-69
2023/09/29 02:10:21;;;;;;;39.97;27.63;;;15.60;99.90;;;;;;5093617;28;20027;-69
2023/09/29 02:12:57;;;;;;;33.15;24.73;;;15.60;99.90;;;;;;5094810;28;20458;-69
2023/09/29 02:15:24;;;;;;;32.47;24.77;;;15.60;99.90;;;;;;5094441;28;20148;-69
2023/09/29 02:17:50;;;;;;;30.58;23.77;;;15.70;99.90;;;;;;5094091;28;20025;-69
2023/09/29 02:20:18;;;;;;;32.83;23.85;;;15.60;99.90;;;;;;5094153;28;20028;-69
2023/09/29 02:22:45;;;;;;;34.25;24.33;;;15.60;99.90;;;;;;5094415;28;20474;-69
2023/09/29 02:25:11;;;;;;;32.97;23.95;;;15.70;99.90;;;;;;5094183;28;20115;-69
2023/09/29 02:27:37;;;;;;;28.73;21.90;;;15.60;99.90;;;;;;5094158;28;20028;-69
2023/09/29 02:30:04;;;;;;;26.73;22.25;;;15.60;99.90;;;;;;5094361;28;20035;-69
2023/09/29 02:32:29;;;;;;;30.00;21.73;;;15.70;99.90;;;;;;5093416;28;20069;-69
2023/09/29 02:34:55;;;;;;;33.15;23.60;;;15.70;99.90;;;;;;5093776;28;20040;-69
2023/09/29 02:37:21;;;;;;;29.83;23.30;;;15.70;99.90;;;;;;5094511;28;20024;-69
2023/09/29 02:39:47;;;;;;;34.20;24.13;;;15.70;99.90;;;;;;5094183;28;20024;-69
2023/09/29 02:42:12;;;;;;;33.53;24.70;;;15.70;99.90;;;;;;5094165;28;20067;-69
2023/09/29 02:44:39;;;;;;;30.50;25.30;;;15.70;99.90;;;;;;5093685;28;20115;-69
2023/09/29 02:47:05;;;;;;;37.63;25.50;;;15.70;99.90;;;;;;5093532;28;20027;-69
2023/09/29 02:49:33;;;;;;;32.15;23.98;;;15.70;99.90;;;;;;5094345;28;20378;-69
2023/09/29 02:51:59;;;;;;;31.48;24.20;;;15.80;99.90;;;;;;5094009;28;20031;-69
2023/09/29 02:54:25;;;;;;;33.60;26.08;;;15.80;99.90;;;;;;5093847;28;20060;-69
2023/09/29 02:56:51;;;;;;;34.45;25.17;;;15.80;99.90;;;;;;5094310;28;20055;-69
2023/09/29 02:59:16;;;;;;;35.10;24.52;;;15.70;99.90;;;;;;5093687;28;20020;-69
2023/09/29 03:01:44;;;;;;;29.52;23.70;;;15.80;99.90;;;;;;5093924;28;20097;-69
2023/09/29 03:04:10;;;;;;;26.92;21.20;;;15.70;99.90;;;;;;5093960;28;20032;-69
2023/09/29 03:06:35;;;;;;;26.33;20.85;;;15.70;99.90;;;;;;5094396;28;20042;-69
2023/09/29 03:09:01;;;;;;;24.45;19.73;;;15.80;99.90;;;;;;5097931;28;20028;-69
2023/09/29 03:11:26;;;;;;;27.05;21.63;;;15.70;99.90;;;;;;5098295;28;20024;-69
2023/09/29 03:13:55;;;;;;;35.53;23.17;;;15.80;99.90;;;;;;5098066;28;20374;-69
2023/09/29 03:16:25;;;;;;;30.48;22.50;;;15.70;99.90;;;;;;5097876;28;20087;-69
2023/09/29 03:18:50;;;;;;;26.83;20.63;;;15.70;99.90;;;;;;5098110;28;20020;-69
2023/09/29 03:21:16;;;;;;;25.88;20.13;;;15.70;99.90;;;;;;5097750;28;20378;-69
2023/09/29 03:23:42;;;;;;;27.58;21.23;;;15.70;99.90;;;;;;5097933;28;20020;-69
2023/09/29 03:26:09;;;;;;;28.02;20.20;;;15.70;99.90;;;;;;5097410;28;20047;-69
2023/09/29 03:28:35;;;;;;;26.42;20.50;;;15.70;99.90;;;;;;5097394;28;20082;-69
2023/09/29 03:31:05;;;;;;;24.33;18.63;;;15.70;99.90;;;;;;5097646;28;20028;-69
2023/09/29 03:33:32;;;;;;;23.25;18.73;;;15.70;99.90;;;;;;5096811;28;20036;-69
2023/09/29 03:35:57;;;;;;;27.40;20.58;;;15.70;99.90;;;;;;5097310;28;20028;-69
2023/09/29 03:38:25;;;;;;;31.23;22.85;;;15.80;99.90;;;;;;5097191;28;20077;-69
2023/09/29 03:40:52;;;;;;;27.55;20.98;;;15.80;99.90;;;;;;5097446;28;20016;-69
2023/09/29 03:43:18;;;;;;;29.98;21.45;;;15.80;99.90;;;;;;5097694;28;20028;-69
2023/09/29 03:45:43;;;;;;;31.20;21.48;;;15.80;99.90;;;;;;5097382;28;20527;-69
2023/09/29 03:48:09;;;;;;;30.15;21.25;;;15.80;99.90;;;;;;5097336;28;20036;-69
2023/09/29 03:50:35;;;;;;;25.17;18.48;;;15.80;99.90;;;;;;5096998;28;20027;-69
2023/09/29 03:53:01;;;;;;;24.10;19.52;;;15.80;99.90;;;;;;5096464;28;20123;-69
2023/09/29 03:55:27;;;;;;;23.20;17.48;;;15.90;99.90;;;;;;5097241;28;20063;-69
2023/09/29 03:57:53;;;;;;;20.67;16.08;;;15.90;99.90;;;;;;5097127;28;20023;-69
2023/09/29 04:00:19;;;;;;;18.60;15.18;;;15.90;99.90;;;;;;5097138;28;20057;-70
2023/09/29 04:02:45;;;;;;;22.25;15.93;;;15.90;99.90;;;;;;5096614;28;20118;-69
2023/09/29 04:05:11;;;;;;;22.15;18.35;;;15.90;99.90;;;;;;5097291;28;20136;-69
2023/09/29 04:07:39;;;;;;;26.13;19.80;;;15.90;99.90;;;;;;5097267;28;20110;-70
2023/09/29 04:10:08;;;;;;;25.20;19.88;;;15.90;99.90;;;;;;5097273;28;20466;-69
2023/09/29 04:12:34;;;;;;;26.20;19.73;;;16.00;99.90;;;;;;5097190;28;20462;-69
2023/09/29 04:14:59;;;;;;;25.15;19.60;;;16.00;99.90;;;;;;5096327;28;20030;-69
2023/09/29 04:17:25;;;;;;;22.85;17.95;;;16.00;99.90;;;;;;5096799;28;20028;-69
2023/09/29 04:19:50;;;;;;;24.30;18.55;;;16.00;99.90;;;;;;5095541;28;20032;-69
2023/09/29 04:22:16;;;;;;;27.80;19.73;;;16.00;99.90;;;;;;5095652;28;20021;-69
2023/09/29 04:24:42;;;;;;;26.27;18.92;;;16.10;99.90;;;;;;5095834;28;20035;-69
2023/09/29 04:27:08;;;;;;;23.13;17.35;;;16.10;99.90;;;;;;5096842;28;20123;-69
2023/09/29 04:29:34;;;;;;;24.35;17.40;;;16.10;99.90;;;;;;5096238;28;20032;-69
2023/09/29 04:32:00;;;;;;;25.15;17.70;;;16.10;99.90;;;;;;5096684;28;20365;-69
2023/09/29 04:34:25;;;;;;;25.23;16.20;;;16.10;99.90;;;;;;5095260;28;20036;-71
2023/09/29 04:36:51;;;;;;;20.02;15.40;;;16.10;99.90;;;;;;5096689;28;20024;-69
2023/09/29 04:39:17;;;;;;;23.60;16.58;;;16.10;99.90;;;;;;5095814;28;20039;-69
2023/09/29 04:41:42;;;;;;;20.30;14.65;;;16.10;99.90;;;;;;5096605;28;20024;-69
2023/09/29 04:44:08;;;;;;;18.20;14.30;;;16.10;99.90;;;;;;5096478;28;20028;-69
2023/09/29 04:46:34;;;;;;;20.00;15.07;;;16.20;99.90;;;;;;5095990;28;20107;-69
2023/09/29 04:49:03;;;;;;;18.10;14.57;;;16.20;99.90;;;;;;5096201;28;20024;-69
2023/09/29 04:51:30;;;;;;;17.13;14.55;;;16.20;99.90;;;;;;5096424;28;20039;-69
2023/09/29 04:53:56;;;;;;;20.08;14.27;;;16.20;99.90;;;;;;5095954;28;20385;-69
2023/09/29 04:56:21;;;;;;;17.67;13.43;;;16.20;99.90;;;;;;5095757;28;20020;-69
2023/09/29 04:58:47;;;;;;;17.70;13.02;;;16.20;99.90;;;;;;5095756;28;20028;-69
2023/09/29 05:01:20;;;;;;;18.33;12.80;;;16.20;99.90;;;;;;5096164;28;20032;-69
2023/09/29 05:03:47;;;;;;;18.98;12.93;;;16.30;99.90;;;;;;5095247;28;20059;-69
2023/09/29 05:06:13;;;;;;;16.88;12.68;;;16.20;99.90;;;;;;5096102;28;20028;-69
2023/09/29 05:08:39;;;;;;;19.92;12.85;;;16.20;99.90;;;;;;5094928;28;20075;-69
2023/09/29 05:11:05;;;;;;;17.98;12.27;;;16.20;99.90;;;;;;5095905;28;20048;-68
2023/09/29 05:13:32;;;;;;;12.55;11.15;;;16.20;99.90;;;;;;5095824;28;20024;-69
2023/09/29 05:15:58;;;;;;;15.55;11.25;;;16.30;99.90;;;;;;5094644;28;20059;-68
2023/09/29 05:18:24;;;;;;;13.48;10.57;;;16.30;99.90;;;;;;5095779;28;20057;-69
2023/09/29 05:20:50;;;;;;;16.48;11.40;;;16.30;99.90;;;;;;5095774;28;20020;-68
2023/09/29 05:23:15;;;;;;;16.13;12.50;;;16.20;99.90;;;;;;5095235;28;20097;-68
2023/09/29 05:25:46;;;;;;;19.30;12.38;;;16.30;99.90;;;;;;5095509;28;20028;-69
2023/09/29 05:28:12;;;;;;;15.55;12.18;;;16.30;99.90;;;;;;5095553;28;20035;-69
2023/09/29 05:30:38;;;;;;;14.90;11.80;;;16.20;99.90;;;;;;5095133;28;20485;-69
2023/09/29 05:33:04;;;;;;;14.23;11.43;;;16.30;99.90;;;;;;5094714;28;20058;-69
2023/09/29 05:35:30;;;;;;;17.17;12.60;;;16.30;99.90;;;;;;5094733;28;20039;-69
2023/09/29 05:37:56;;;;;;;15.57;10.88;;;16.30;99.90;;;;;;5095067;28;20024;-69
2023/09/29 05:40:21;;;;;;;16.77;11.95;;;16.30;99.90;;;;;;5095121;28;20369;-69
2023/09/29 05:42:47;;;;;;;14.75;12.00;;;16.30;99.90;;;;;;5095304;28;20035;-69
2023/09/29 05:45:13;;;;;;;16.08;12.70;;;16.30;99.90;;;;;;5095262;28;20032;-69
2023/09/29 05:47:38;;;;;;;15.20;11.68;;;16.40;99.90;;;;;;5095383;28;20032;-69
2023/09/29 05:50:04;;;;;;;13.88;11.52;;;16.40;99.90;;;;;;5095124;28;20028;-69
2023/09/29 05:52:30;;;;;;;16.17;11.02;;;16.50;99.90;;;;;;5094701;28;20028;-69
2023/09/29 05:54:55;;;;;;;16.10;11.60;;;16.50;99.90;;;;;;5094482;28;20032;-69
2023/09/29 05:57:21;;;;;;;12.65;10.48;;;16.50;99.90;;;;;;5094472;28;20481;-69
2023/09/29 05:59:46;;;;;;;15.90;11.95;;;16.50;99.90;;;;;;5094942;28;20031;-69
2023/09/29 06:02:12;;;;;;;15.52;12.10;;;16.50;99.90;;;;;;5094463;28;20027;-69
2023/09/29 06:04:37;;;;;;;13.88;10.00;;;16.60;99.90;;;;;;5094732;28;20028;-69
2023/09/29 06:07:03;;;;;;;14.35;11.23;;;16.60;99.90;;;;;;5094805;28;20176;-69
2023/09/29 06:09:30;;;;;;;17.55;10.75;;;16.60;99.90;;;;;;5071349;28;20041;-69
2023/09/29 06:11:55;;;;;;;14.93;11.80;;;16.60;99.90;;;;;;5081318;28;20525;-69
2023/09/29 06:14:21;;;;;;;16.45;12.48;;;16.70;99.90;;;;;;5094491;28;20110;-69
2023/09/29 06:16:46;;;;;;;17.30;10.70;;;16.80;99.90;;;;;;5079197;28;20028;-69
2023/09/29 06:19:12;;;;;;;17.27;10.88;;;16.80;99.90;;;;;;5057024;28;20386;-69
2023/09/29 06:21:39;;;;;;;14.75;9.75;;;16.90;99.90;;;;;;5054269;28;20040;-69
2023/09/29 06:24:05;;;;;;;15.32;11.02;;;17.10;99.90;;;;;;5060442;28;20029;-69
2023/09/29 06:26:30;;;;;;;14.85;10.13;;;17.20;99.90;;;;;;5064247;28;20025;-69
2023/09/29 06:28:56;;;;;;;19.73;10.02;;;17.30;99.90;;;;;;5072492;28;20115;-69
2023/09/29 06:31:22;;;;;;;14.18;9.20;;;17.40;99.90;;;;;;5073984;28;20027;-69
2023/09/29 06:33:47;;;;;;;12.18;8.07;;;17.50;99.90;;;;;;5073001;28;20044;-69
2023/09/29 06:36:13;;;;;;;15.00;8.55;;;17.60;99.90;;;;;;5072510;28;20037;-69
2023/09/29 06:38:39;;;;;;;11.73;8.60;;;17.70;99.90;;;;;;5073155;28;20040;-69
2023/09/29 06:41:04;;;;;;;15.93;9.23;;;17.80;99.90;;;;;;5073696;28;20028;-69
2023/09/29 06:43:30;;;;;;;20.80;9.13;;;17.90;99.90;;;;;;5073614;28;20032;-70
2023/09/29 06:45:55;;;;;;;13.43;8.63;;;18.00;99.90;;;;;;5073437;28;20036;-69
2023/09/29 06:48:21;;;;;;;15.55;8.25;;;18.00;99.90;;;;;;5073808;28;20370;-69
2023/09/29 06:50:46;;;;;;;10.68;7.43;;;18.10;99.90;;;;;;5073727;28;20086;-69
2023/09/29 06:53:12;;;;;;;11.45;7.90;;;18.20;99.90;;;;;;5073767;28;20489;-69
2023/09/29 06:55:37;;;;;;;8.98;6.70;;;18.20;99.90;;;;;;5073273;28;20035;-69
2023/09/29 06:58:04;;;;;;;8.80;7.20;;;18.20;99.90;;;;;;5073239;28;20494;-69
2023/09/29 07:00:30;;;;;;;10.05;7.10;;;18.30;99.90;;;;;;5073657;28;20470;-69
2023/09/29 07:02:55;;;;;;;13.40;7.25;;;18.30;99.90;;;;;;5073453;28;20082;-69
2023/09/29 07:05:21;;;;;;;10.30;6.70;;;18.30;99.90;;;;;;5073563;28;20048;-70
2023/09/29 07:07:47;;;;;;;14.20;6.78;;;18.40;99.90;;;;;;5072266;28;20032;-69
2023/09/29 07:10:13;;;;;;;9.68;6.20;;;18.50;99.90;;;;;;5072868;28;20060;-69
2023/09/29 07:12:39;;;;;;;9.98;6.68;;;18.60;99.90;;;;;;5073680;28;20028;-69
2023/09/29 07:15:05;;;;;;;7.55;6.07;;;18.70;99.90;;;;;;5073571;28;20086;-69
2023/09/29 07:17:31;;;;;;;7.30;5.50;;;18.80;99.90;;;;;;5072687;28;20082;-69
2023/09/29 07:19:56;;;;;;;7.95;6.63;;;19.00;99.90;;;;;;5073677;28;20062;-69
2023/09/29 07:22:22;;;;;;;11.00;6.20;;;19.20;99.90;;;;;;5066373;28;20028;-69
2023/09/29 07:24:49;;;;;;;7.28;4.70;;;19.30;99.90;;;;;;5070577;28;20029;-69
2023/09/29 07:27:16;;;;;;;16.52;5.85;;;19.40;99.90;;;;;;5071415;28;20028;-70
2023/09/29 07:29:42;;;;;;;12.02;5.88;;;19.50;99.90;;;;;;5071058;28;20036;-69
2023/09/29 07:32:10;;;;;;;9.35;5.30;;;19.50;99.90;;;;;;5071685;28;20479;-69
2023/09/29 07:34:36;;;;;;;7.63;5.50;;;19.70;99.90;;;;;;5071579;28;20045;-69
2023/09/29 07:37:01;;;;;;;10.32;5.90;;;19.90;99.90;;;;;;5088687;28;20367;-69
2023/09/29 07:39:27;;;;;;;10.90;5.40;;;20.10;99.90;;;;;;5079730;28;20094;-69
2023/09/29 07:41:53;;;;;;;7.70;5.32;;;20.30;99.90;;;;;;5072751;28;20101;-69
2023/09/29 07:44:18;;;;;;;7.97;4.70;;;20.50;95.00;;;;;;5072942;28;20371;-69
2023/09/29 07:46:46;;;;;;;8.23;5.38;;;20.80;76.40;;;;;;5073515;28;20068;-69
2023/09/29 07:49:14;;;;;;;9.18;5.30;;;21.10;54.10;;;;;;5072992;28;20115;-69
2023/09/29 07:51:40;;;;;;;6.63;5.00;;;21.20;33.80;;;;;;5071876;28;20024;-71
2023/09/29 07:54:06;;;;;;;7.45;4.90;;;21.10;23.30;;;;;;5071815;28;20474;-69
2023/09/29 07:56:32;;;;;;;7.28;4.93;;;21.10;26.30;;;;;;5074223;28;20024;-70
2023/09/29 07:58:58;;;;;;;10.40;5.20;;;21.00;27.60;;;;;;5070464;28;20028;-70
2023/09/29 08:01:23;;;;;;;8.18;5.15;;;20.90;37.00;;;;;;5074437;28;20021;-69
2023/09/29 08:03:49;;;;;;;8.43;4.65;;;20.90;32.90;;;;;;5072592;28;20064;-69
2023/09/29 08:06:16;;;;;;;6.22;4.70;;;20.90;26.50;;;;;;5073812;28;20052;-69
2023/09/29 08:08:41;;;;;;;6.53;4.30;;;21.10;31.70;;;;;;5074569;28;20093;-69
2023/09/29 08:11:07;;;;;;;8.38;4.20;;;21.10;17.90;;;;;;5074258;28;20414;-69
2023/09/29 08:13:34;;;;;;;9.75;4.30;;;21.30;21.90;;;;;;5071948;28;20032;-70
2023/09/29 08:16:00;;;;;;;7.28;4.13;;;21.40;5.50;;;;;;5073520;28;20100;-69
2023/09/29 08:18:25;;;;;;;7.72;3.70;;;21.70;1.00;;;;;;5074499;28;20028;-69
2023/09/29 08:20:53;;;;;;;7.00;3.92;;;21.80;1.00;;;;;;5076015;28;20025;-69
2023/09/29 08:23:18;;;;;;;8.43;3.78;;;22.10;1.00;;;;;;5073183;28;20028;-69
2023/09/29 08:25:45;;;;;;;8.32;4.07;;;22.50;1.00;;;;;;5073762;28;20513;-70
2023/09/29 08:28:13;;;;;;;7.15;3.90;;;22.40;1.00;;;;;;5074819;28;20495;-70
2023/09/29 08:30:40;;;;;;;7.20;4.15;;;22.40;1.00;;;;;;5073706;28;20032;-70
2023/09/29 08:33:05;;;;;;;8.85;4.22;;;22.50;1.00;;;;;;5070427;28;20561;-70
2023/09/29 08:35:31;;;;;;;9.00;3.70;;;23.10;1.00;;;;;;5073418;28;20166;-69
2023/09/29 08:37:57;;;;;;;5.28;3.33;;;24.50;99.90;;;;;;5075429;28;20041;-70
2023/09/29 08:40:22;;;;;;;9.35;3.65;;;25.20;1.00;;;;;;5073884;28;20115;-70
2023/09/29 08:42:49;;;;;;;7.07;3.60;;;26.40;3.40;;;;;;5063547;28;20033;-70
2023/09/29 08:45:17;;;;;;;7.43;3.08;;;27.40;43.30;;;;;;5070129;28;20036;-71
2023/09/29 08:47:49;;;;;;;4.70;3.35;;;28.10;51.80;;;;;;5070216;28;20028;-71
2023/09/29 08:50:16;;;;;;;5.55;3.00;;;27.50;40.10;;;;;;5070511;28;20481;-70
2023/09/29 08:52:44;;;;;;;7.18;3.28;;;26.50;1.00;;;;;;5055861;28;20025;-70
2023/09/29 08:55:12;;;;;;;5.32;3.00;;;25.80;99.90;;;;;;5067272;28;20539;-70
2023/09/29 08:57:40;;;;;;;5.05;3.15;;;26.00;13.60;;;;;;5074973;28;20037;-70
2023/09/29 09:00:07;;;;;;;3.75;3.00;;;26.20;1.00;;;;;;5074987;28;20029;-71
2023/09/29 09:02:33;;;;;;;7.03;3.20;;;26.40;99.90;;;;;;5075062;28;20478;-71
2023/09/29 09:04:59;;;;;;;7.60;3.42;;;27.00;99.90;;;;;;5074630;28;20078;-71
2023/09/29 09:07:25;;;;;;;4.85;2.72;;;27.50;93.10;;;;;;5072928;28;20029;-71
2023/09/29 09:09:53;;;;;;;7.57;3.10;;;27.10;99.90;;;;;;5059314;28;20085;-70
2023/09/29 09:12:31;;;;;;;7.47;3.03;;;26.40;99.90;;;;;;5073957;28;20060;-71
2023/09/29 09:14:56;;;;;;;5.22;3.10;;;26.40;92.90;;;;;;5056648;28;20033;-71
2023/09/29 09:17:23;;;;;;;5.22;3.22;;;27.00;99.90;;;;;;5069734;28;20478;-71
2023/09/29 09:19:51;;;;;;;4.10;2.55;;;26.90;1.00;;;;;;5069918;28;20020;-71
2023/09/29 09:22:24;;;;;;;8.63;3.08;;;27.00;99.90;;;;;;5075614;28;20025;-71
2023/09/29 09:24:51;;;;;;;4.65;2.90;;;26.70;99.90;;;;;;5071203;28;20047;-71
2023/09/29 09:27:18;;;;;;;6.60;3.22;;;26.70;99.90;;;;;;5071910;28;20531;-71
2023/09/29 09:29:44;;;;;;;4.35;3.17;;;26.90;99.90;;;;;;5071015;28;20103;-71
2023/09/29 09:32:10;;;;;;;5.93;3.08;;;27.60;99.90;;;;;;5065774;28;20026;-71
2023/09/29 09:34:37;;;;;;;5.65;3.10;;;27.00;99.90;;;;;;5070181;28;20045;-70
2023/09/29 09:37:05;;;;;;;7.85;3.28;;;26.40;1.00;;;;;;5070329;28;20115;-71
2023/09/29 09:39:33;;;;;;;5.45;2.83;;;25.90;99.90;;;;;;5059412;28;20495;-70
2023/09/29 09:41:59;;;;;;;10.00;3.33;;;25.70;53.60;;;;;;5057838;28;20433;-71
2023/09/29 09:44:26;;;;;;;5.97;2.90;;;25.60;99.90;;;;;;5060242;28;20020;-71
2023/09/29 09:46:54;;;;;;;6.40;3.30;;;25.70;99.90;;;;;;5074037;28;20024;-70
2023/09/29 09:49:43;;;;;;;6.65;3.25;;;25.40;99.90;;;;;;5073843;28;20028;-70
2023/09/29 09:52:15;;;;;;;7.55;3.60;;;25.10;99.90;;;;;;5073252;28;20106;-70
2023/09/29 09:54:48;;;;;;;10.63;3.45;;;24.70;69.60;;;;;;5073496;28;20032;-70
2023/09/29 09:57:22;;;;;;;7.90;3.53;;;24.50;99.90;;;;;;5062358;28;20029;-70
2023/09/29 09:59:51;;;;;;;10.57;3.55;;;24.30;82.50;;;;;;5061091;28;20111;-70
2023/09/29 10:02:19;;;;;;;7.65;3.70;;;24.30;1.00;;;;;;5070947;28;20081;-70
2023/09/29 10:04:46;;;;;;;7.88;2.85;;;24.30;99.90;;;;;;5072712;28;20478;-71
2023/09/29 10:07:14;;;;;;;8.85;3.50;;;24.30;99.90;;;;;;5064258;28;20035;-70
2023/09/29 10:09:43;;;;;;;6.80;3.40;;;24.30;84.90;;;;;;5073362;28;20032;-70
2023/09/29 10:12:09;;;;;;;5.72;3.45;;;24.30;99.90;;;;;;5069928;28;20028;-71
2023/09/29 10:14:44;;;;;;;5.85;3.30;;;24.20;99.90;;;;;;5073409;28;20024;-70
2023/09/29 10:17:12;;;;;;;7.90;3.65;;;24.20;99.90;;;;;;5072723;28;20021;-70
2023/09/29 10:19:38;;;;;;;4.32;3.17;;;24.00;99.90;;;;;;5070212;28;20032;-70
2023/09/29 10:22:06;;;;;;;8.38;3.50;;;23.80;99.90;;;;;;5071748;28;20033;-71
2023/09/29 10:24:31;;;;;;;4.38;3.17;;;23.80;74.50;;;;;;5073410;28;20029;-70
2023/09/29 10:27:11;;;;;;;6.03;3.47;;;23.60;99.90;;;;;;5071080;28;20048;-71
2023/09/29 10:29:38;;;;;;;6.95;3.20;;;23.60;99.90;;;;;;5069694;28;20036;-70
2023/09/29 10:32:10;;;;;;;7.05;3.50;;;23.60;99.90;;;;;;5071095;28;20131;-70
2023/09/29 10:34:36;;;;;;;8.00;3.63;;;23.70;1.00;;;;;;5071656;28;20052;-70
2023/09/29 10:37:03;;;;;;;11.15;4.05;;;23.90;1.00;;;;;;5070605;28;20044;-71
2023/09/29 10:39:29;;;;;;;7.30;3.67;;;23.80;1.00;;;;;;5069789;28;20039;-70
2023/09/29 10:42:04;;;;;;;8.75;3.42;;;23.90;1.00;;;;;;5071493;28;20029;-70
2023/09/29 10:44:29;;;;;;;6.57;3.53;;;24.10;11.80;;;;;;5071401;28;20063;-70
2023/09/29 10:46:55;;;;;;;8.88;3.58;;;24.30;99.90;;;;;;5071024;28;20509;-70
2023/09/29 10:49:30;;;;;;;8.70;3.88;;;24.60;99.90;;;;;;5069946;28;20047;-70
2023/09/29 10:51:57;;;;;;;6.47;3.30;;;24.60;99.90;;;;;;5067593;28;20028;-70
2023/09/29 10:54:23;;;;;;;7.25;3.58;;;24.90;99.90;;;;;;5071912;28;20029;-70
2023/09/29 10:56:49;;;;;;;8.50;3.72;;;24.80;99.90;;;;;;5070827;28;20032;-70
2023/09/29 10:59:15;;;;;;;7.93;3.75;;;25.00;1.00;;;;;;5069344;28;20020;-70
2023/09/29 11:01:44;;;;;;;8.63;3.65;;;24.70;99.90;;;;;;5070621;28;20038;-70
2023/09/29 11:04:10;;;;;;;5.25;3.60;;;24.50;99.90;;;;;;5071749;28;20029;-70
2023/09/29 11:06:51;;;;;;;8.90;4.05;;;24.00;1.00;;;;;;5071073;28;20100;-69
2023/09/29 11:09:20;;;;;;;5.80;3.95;;;23.70;1.00;;;;;;5069320;28;20028;-69
2023/09/29 11:11:46;;;;;;;10.90;4.47;;;23.60;99.90;;;;;;5070892;28;20455;-69
2023/09/29 11:14:11;;;;;;;8.57;3.95;;;23.60;99.90;;;;;;5070279;28;20021;-70
2023/09/29 11:16:37;;;;;;;6.75;4.03;;;23.90;99.90;;;;;;5070771;28;20021;-70
2023/09/29 11:19:11;;;;;;;5.97;4.00;;;24.00;90.30;;;;;;5069602;28;20111;-70
2023/09/29 11:21:38;;;;;;;8.32;4.43;;;24.10;74.00;;;;;;5070770;28;20025;-69
2023/09/29 11:24:06;;;;;;;6.90;4.30;;;24.10;52.90;;;;;;5070959;28;20172;-70
2023/09/29 11:26:32;;;;;;;8.43;4.20;;;23.80;6.20;;;;;;5070445;28;20020;-70
2023/09/29 11:28:58;;;;;;;8.48;4.25;;;23.30;99.90;;;;;;5073993;28;20489;-69
2023/09/29 11:31:24;;;;;;;6.47;3.88;;;22.80;99.90;;;;;;5074717;28;20036;-69
2023/09/29 11:33:51;;;;;;;6.80;4.22;;;22.70;1.00;;;;;;5074471;28;20560;-69
2023/09/29 11:36:19;;;;;;;9.63;4.28;;;22.60;1.00;;;;;;5074725;28;20406;-69
2023/09/29 11:38:45;;;;;;;10.50;4.32;;;22.50;1.00;;;;;;5073327;28;20028;-70
2023/09/29 11:41:12;;;;;;;6.78;3.92;;;22.50;1.00;;;;;;5074622;28;20502;-69
2023/09/29 11:43:40;;;;;;;11.18;3.97;;;22.50;1.00;;;;;;5074997;28;20489;-69
2023/09/29 11:46:06;;;;;;;5.95;4.20;;;22.50;1.00;;;;;;5074488;28;20503;-70
2023/09/29 11:48:32;;;;;;;8.20;3.92;;;22.50;99.90;;;;;;5072430;28;20119;-70
2023/09/29 11:50:57;;;;;;;6.85;3.40;;;22.70;99.90;;;;;;5074112;28;20024;-69
2023/09/29 11:53:23;;;;;;;9.88;3.55;;;23.10;99.90;;;;;;5074782;28;20037;-70
2023/09/29 11:55:49;;;;;;;8.80;3.80;;;23.60;98.70;;;;;;5074179;28;20040;-70
2023/09/29 11:58:15;;;;;;;6.93;3.70;;;23.90;99.90;;;;;;5072686;28;20051;-70
2023/09/29 12:00:41;;;;;;;8.50;3.88;;;23.90;99.90;;;;;;5074405;28;20035;-70
2023/09/29 12:03:08;;;;;;;8.52;3.38;;;24.20;99.90;;;;;;5074479;28;20024;-70
2023/09/29 12:05:34;;;;;;;7.28;4.30;;;24.40;99.90;;;;;;5077796;28;20111;-70
2023/09/29 12:07:59;;;;;;;7.55;4.40;;;24.30;99.90;;;;;;5069972;28;20033;-70
2023/09/29 12:10:25;;;;;;;11.98;5.28;;;24.50;99.90;;;;;;5073618;28;20040;-69
2023/09/29 12:12:52;;;;;;;11.70;5.10;;;24.20;1.00;;;;;;5076513;28;20036;-70
2023/09/29 12:15:18;;;;;;;11.90;5.03;;;24.10;99.90;;;;;;5075087;28;20033;-70
2023/09/29 12:17:45;;;;;;;11.02;5.38;;;24.00;99.90;;;;;;5075644;28;20033;-69
2023/09/29 12:20:13;;;;;;;11.27;4.90;;;24.00;99.90;;;;;;5076520;28;20071;-69
2023/09/29 12:22:43;;;;;;;11.75;4.70;;;24.30;99.90;;;;;;5075262;28;20097;-70
2023/09/29 12:25:11;;;;;;;9.85;4.97;;;24.30;99.90;;;;;;5076018;28;20435;-69
2023/09/29 12:27:38;;;;;;;13.85;4.70;;;24.60;92.70;;;;;;5076495;28;20116;-69
2023/09/29 12:30:07;;;;;;;14.77;5.13;;;24.50;1.00;;;;;;5075986;28;20456;-69
2023/09/29 12:32:32;;;;;;;14.52;4.95;;;24.30;34.80;;;;;;5075425;28;20044;-70